sensor_id;sensor_type;location;lat;lon;timestamp;P1;durP1;ratioP1;P2;durP2;ratioP2
26377;SDS011;14078;50.974;6.786;2023-11-21T00:01:14;16.38;;;8.75;;
26377;SDS011;14078;50.974;6.786;2023-11-21T00:03:42;16.92;;;8.38;;
26377;SDS011;14078;50.974;6.786;2023-11-21T00:06:10;10.63;;;7.72;;
26377;SDS011;14078;50.974;6.786;2023-11-21T00:08:36;12.27;;;7.15;;
26377;SDS011;14078;50.974;6.786;2023-11-21T00:11:03;14.88;;;7.68;;
26377;SDS011;14078;50.974;6.786;2023-11-21T00:13:31;15.48;;;8.95;;
26377;SDS011;14078;50.974;6.786;2023-11-21T00:15:58;16.33;;;9.15;;
26377;SDS011;14078;50.974;6.786;2023-11-21T00:18:24;14.73;;;9.57;;
26377;SDS011;14078;50.974;6.786;2023-11-21T00:20:51;18.98;;;9.23;;
26377;SDS011;14078;50.974;6.786;2023-11-21T00:23:19;16.15;;;9.45;;
26377;SDS011;14078;50.974;6.786;2023-11-21T00:25:45;21.13;;;10.68;;
26377;SDS011;14078;50.974;6.786;2023-11-21T00:28:12;18.60;;;10.13;;
26377;SDS011;14078;50.974;6.786;2023-11-21T00:30:39;18.63;;;9.95;;
26377;SDS011;14078;50.974;6.786;2023-11-21T00:33:06;17.48;;;10.25;;
26377;SDS011;14078;50.974;6.786;2023-11-21T00:35:33;21.75;;;10.32;;
26377;SDS011;14078;50.974;6.786;2023-11-21T00:38:00;16.23;;;9.75;;
26377;SDS011;14078;50.974;6.786;2023-11-21T00:40:28;17.38;;;10.05;;
26377;SDS011;14078;50.974;6.786;2023-11-21T00:42:54;15.07;;;10.45;;
26377;SDS011;14078;50.974;6.786;2023-11-21T00:45:21;16.83;;;10.20;;
26377;SDS011;14078;50.974;6.786;2023-11-21T00:47:48;18.83;;;11.07;;
26377;SDS011;14078;50.974;6.786;2023-11-21T00:50:14;21.27;;;10.75;;
26377;SDS011;14078;50.974;6.786;2023-11-21T00:52:41;29.73;;;11.63;;
26377;SDS011;14078;50.974;6.786;2023-11-21T00:55:08;19.88;;;9.52;;
26377;SDS011;14078;50.974;6.786;2023-11-21T00:57:38;19.92;;;10.95;;
26377;SDS011;14078;50.974;6.786;2023-11-21T01:00:05;21.35;;;9.73;;
26377;SDS011;14078;50.974;6.786;2023-11-21T01:05:01;19.63;;;9.90;;
26377;SDS011;14078;50.974;6.786;2023-11-21T01:07:28;18.42;;;9.55;;
26377;SDS011;14078;50.974;6.786;2023-11-21T01:09:55;20.85;;;10.13;;
26377;SDS011;14078;50.974;6.786;2023-11-21T01:12:22;14.27;;;8.93;;
26377;SDS011;14078;50.974;6.786;2023-11-21T01:14:51;15.93;;;9.65;;
26377;SDS011;14078;50.974;6.786;2023-11-21T01:17:17;18.38;;;9.65;;
26377;SDS011;14078;50.974;6.786;2023-11-21T01:19:44;19.80;;;9.43;;
26377;SDS011;14078;50.974;6.786;2023-11-21T01:22:11;17.70;;;8.63;;
26377;SDS011;14078;50.974;6.786;2023-11-21T01:24:37;21.60;;;9.02;;
26377;SDS011;14078;50.974;6.786;2023-11-21T01:27:04;16.02;;;9.43;;
26377;SDS011;14078;50.974;6.786;2023-11-21T01:29:32;21.85;;;9.50;;
26377;SDS011;14078;50.974;6.786;2023-11-21T01:32:02;17.90;;;10.20;;
26377;SDS011;14078;50.974;6.786;2023-11-21T01:34:29;16.40;;;9.00;;
26377;SDS011;14078;50.974;6.786;2023-11-21T01:36:56;18.98;;;10.23;;
26377;SDS011;14078;50.974;6.786;2023-11-21T01:39:23;25.58;;;9.63;;
26377;SDS011;14078;50.974;6.786;2023-11-21T01:41:50;22.25;;;9.40;;
26377;SDS011;14078;50.974;6.786;2023-11-21T01:44:17;20.40;;;9.68;;
26377;SDS011;14078;50.974;6.786;2023-11-21T01:46:44;20.73;;;10.85;;
26377;SDS011;14078;50.974;6.786;2023-11-21T01:49:12;18.75;;;10.68;;
26377;SDS011;14078;50.974;6.786;2023-11-21T01:51:40;17.40;;;9.93;;
26377;SDS011;14078;50.974;6.786;2023-11-21T01:54:08;22.47;;;11.57;;
26377;SDS011;14078;50.974;6.786;2023-11-21T01:56:36;20.87;;;9.33;;
26377;SDS011;14078;50.974;6.786;2023-11-21T01:59:04;23.73;;;10.77;;
26377;SDS011;14078;50.974;6.786;2023-11-21T02:01:32;20.40;;;10.60;;
26377;SDS011;14078;50.974;6.786;2023-11-21T02:03:59;19.60;;;11.07;;
26377;SDS011;14078;50.974;6.786;2023-11-21T02:06:28;19.00;;;10.15;;
26377;SDS011;14078;50.974;6.786;2023-11-21T02:08:56;22.65;;;11.27;;
26377;SDS011;14078;50.974;6.786;2023-11-21T02:11:24;27.03;;;11.47;;
26377;SDS011;14078;50.974;6.786;2023-11-21T02:13:52;24.48;;;11.35;;
26377;SDS011;14078;50.974;6.786;2023-11-21T02:16:19;22.63;;;11.10;;
26377;SDS011;14078;50.974;6.786;2023-11-21T02:18:46;23.15;;;10.45;;
26377;SDS011;14078;50.974;6.786;2023-11-21T02:21:14;23.75;;;10.77;;
26377;SDS011;14078;50.974;6.786;2023-11-21T02:23:42;23.27;;;12.05;;
26377;SDS011;14078;50.974;6.786;2023-11-21T02:26:11;18.70;;;11.00;;
26377;SDS011;14078;50.974;6.786;2023-11-21T02:28:39;18.40;;;9.95;;
26377;SDS011;14078;50.974;6.786;2023-11-21T02:31:05;25.83;;;10.77;;
26377;SDS011;14078;50.974;6.786;2023-11-21T02:33:32;23.45;;;11.20;;
26377;SDS011;14078;50.974;6.786;2023-11-21T02:35:59;19.88;;;11.27;;
26377;SDS011;14078;50.974;6.786;2023-11-21T02:38:26;19.52;;;9.93;;
26377;SDS011;14078;50.974;6.786;2023-11-21T02:40:54;21.67;;;11.52;;
26377;SDS011;14078;50.974;6.786;2023-11-21T02:43:23;29.15;;;11.95;;
26377;SDS011;14078;50.974;6.786;2023-11-21T02:45:49;26.42;;;10.57;;
26377;SDS011;14078;50.974;6.786;2023-11-21T02:48:16;18.90;;;11.00;;
26377;SDS011;14078;50.974;6.786;2023-11-21T02:50:43;20.38;;;10.32;;
26377;SDS011;14078;50.974;6.786;2023-11-21T02:53:09;20.58;;;10.25;;
26377;SDS011;14078;50.974;6.786;2023-11-21T02:55:37;24.05;;;11.70;;
26377;SDS011;14078;50.974;6.786;2023-11-21T02:58:05;19.77;;;11.05;;
26377;SDS011;14078;50.974;6.786;2023-11-21T03:00:32;22.45;;;11.07;;
26377;SDS011;14078;50.974;6.786;2023-11-21T03:02:58;19.25;;;10.20;;
26377;SDS011;14078;50.974;6.786;2023-11-21T03:05:25;23.80;;;9.88;;
26377;SDS011;14078;50.974;6.786;2023-11-21T03:07:53;19.92;;;9.10;;
26377;SDS011;14078;50.974;6.786;2023-11-21T03:10:20;18.40;;;9.60;;
26377;SDS011;14078;50.974;6.786;2023-11-21T03:12:47;18.08;;;9.15;;
26377;SDS011;14078;50.974;6.786;2023-11-21T03:15:15;19.40;;;9.23;;
26377;SDS011;14078;50.974;6.786;2023-11-21T03:17:41;19.42;;;9.93;;
26377;SDS011;14078;50.974;6.786;2023-11-21T03:20:08;23.17;;;10.45;;
26377;SDS011;14078;50.974;6.786;2023-11-21T03:22:36;18.90;;;9.37;;
26377;SDS011;14078;50.974;6.786;2023-11-21T03:25:04;17.95;;;9.75;;
26377;SDS011;14078;50.974;6.786;2023-11-21T03:27:35;18.77;;;8.80;;
26377;SDS011;14078;50.974;6.786;2023-11-21T03:30:02;19.05;;;9.02;;
26377;SDS011;14078;50.974;6.786;2023-11-21T03:32:33;21.42;;;9.15;;
26377;SDS011;14078;50.974;6.786;2023-11-21T03:35:00;15.85;;;9.05;;
26377;SDS011;14078;50.974;6.786;2023-11-21T03:37:27;23.30;;;8.38;;
26377;SDS011;14078;50.974;6.786;2023-11-21T03:39:54;19.38;;;8.20;;
26377;SDS011;14078;50.974;6.786;2023-11-21T03:42:21;22.77;;;8.90;;
26377;SDS011;14078;50.974;6.786;2023-11-21T03:44:48;23.65;;;9.48;;
26377;SDS011;14078;50.974;6.786;2023-11-21T03:47:15;20.10;;;8.30;;
26377;SDS011;14078;50.974;6.786;2023-11-21T03:49:42;15.68;;;8.48;;
26377;SDS011;14078;50.974;6.786;2023-11-21T03:52:09;16.42;;;8.15;;
26377;SDS011;14078;50.974;6.786;2023-11-21T03:54:36;13.63;;;8.30;;
26377;SDS011;14078;50.974;6.786;2023-11-21T03:57:04;12.93;;;8.00;;
26377;SDS011;14078;50.974;6.786;2023-11-21T03:59:30;16.65;;;7.63;;
26377;SDS011;14078;50.974;6.786;2023-11-21T04:01:57;14.35;;;8.30;;
26377;SDS011;14078;50.974;6.786;2023-11-21T04:04:25;13.77;;;8.15;;
26377;SDS011;14078;50.974;6.786;2023-11-21T04:06:53;15.20;;;7.85;;
26377;SDS011;14078;50.974;6.786;2023-11-21T04:09:20;15.00;;;7.07;;
26377;SDS011;14078;50.974;6.786;2023-11-21T04:11:50;22.45;;;8.05;;
26377;SDS011;14078;50.974;6.786;2023-11-21T04:14:16;11.82;;;7.05;;
26377;SDS011;14078;50.974;6.786;2023-11-21T04:16:43;13.85;;;6.93;;
26377;SDS011;14078;50.974;6.786;2023-11-21T04:19:10;18.38;;;8.15;;
26377;SDS011;14078;50.974;6.786;2023-11-21T04:24:07;13.68;;;7.53;;
26377;SDS011;14078;50.974;6.786;2023-11-21T04:26:34;18.88;;;8.10;;
26377;SDS011;14078;50.974;6.786;2023-11-21T04:29:01;14.93;;;7.63;;
26377;SDS011;14078;50.974;6.786;2023-11-21T04:31:28;15.90;;;7.65;;
26377;SDS011;14078;50.974;6.786;2023-11-21T04:33:54;20.63;;;8.05;;
26377;SDS011;14078;50.974;6.786;2023-11-21T04:36:21;13.18;;;7.47;;
26377;SDS011;14078;50.974;6.786;2023-11-21T04:38:48;14.43;;;7.18;;
26377;SDS011;14078;50.974;6.786;2023-11-21T04:41:16;19.30;;;8.25;;
26377;SDS011;14078;50.974;6.786;2023-11-21T04:43:43;18.80;;;7.57;;
26377;SDS011;14078;50.974;6.786;2023-11-21T04:46:09;18.55;;;8.25;;
26377;SDS011;14078;50.974;6.786;2023-11-21T04:48:36;14.10;;;8.05;;
26377;SDS011;14078;50.974;6.786;2023-11-21T04:51:03;18.58;;;8.35;;
26377;SDS011;14078;50.974;6.786;2023-11-21T04:53:30;19.13;;;8.70;;
26377;SDS011;14078;50.974;6.786;2023-11-21T04:55:56;15.55;;;8.38;;
26377;SDS011;14078;50.974;6.786;2023-11-21T04:58:25;20.33;;;10.00;;
26377;SDS011;14078;50.974;6.786;2023-11-21T05:00:51;22.40;;;11.10;;
26377;SDS011;14078;50.974;6.786;2023-11-21T05:03:18;29.05;;;10.25;;
26377;SDS011;14078;50.974;6.786;2023-11-21T05:05:45;20.23;;;9.70;;
26377;SDS011;14078;50.974;6.786;2023-11-21T05:08:12;20.48;;;10.55;;
26377;SDS011;14078;50.974;6.786;2023-11-21T05:10:39;22.67;;;11.30;;
26377;SDS011;14078;50.974;6.786;2023-11-21T05:13:06;26.05;;;12.77;;
26377;SDS011;14078;50.974;6.786;2023-11-21T05:15:36;22.90;;;12.55;;
26377;SDS011;14078;50.974;6.786;2023-11-21T05:18:02;28.38;;;11.93;;
26377;SDS011;14078;50.974;6.786;2023-11-21T05:20:30;26.85;;;12.63;;
26377;SDS011;14078;50.974;6.786;2023-11-21T05:22:56;29.10;;;13.70;;
26377;SDS011;14078;50.974;6.786;2023-11-21T05:25:24;25.30;;;12.35;;
26377;SDS011;14078;50.974;6.786;2023-11-21T05:27:50;22.42;;;11.23;;
26377;SDS011;14078;50.974;6.786;2023-11-21T05:30:18;22.55;;;11.07;;
26377;SDS011;14078;50.974;6.786;2023-11-21T05:32:46;24.80;;;11.70;;
26377;SDS011;14078;50.974;6.786;2023-11-21T05:35:14;26.30;;;12.30;;
26377;SDS011;14078;50.974;6.786;2023-11-21T05:37:41;27.88;;;12.45;;
26377;SDS011;14078;50.974;6.786;2023-11-21T05:40:08;27.65;;;14.05;;
26377;SDS011;14078;50.974;6.786;2023-11-21T05:42:35;35.92;;;14.68;;
26377;SDS011;14078;50.974;6.786;2023-11-21T05:45:03;25.15;;;12.93;;
26377;SDS011;14078;50.974;6.786;2023-11-21T05:47:35;30.95;;;13.25;;
26377;SDS011;14078;50.974;6.786;2023-11-21T05:50:05;37.43;;;13.57;;
26377;SDS011;14078;50.974;6.786;2023-11-21T05:52:35;33.10;;;12.73;;
26377;SDS011;14078;50.974;6.786;2023-11-21T05:55:02;27.90;;;13.02;;
26377;SDS011;14078;50.974;6.786;2023-11-21T05:57:29;26.30;;;12.75;;
26377;SDS011;14078;50.974;6.786;2023-11-21T05:59:56;29.73;;;12.43;;
26377;SDS011;14078;50.974;6.786;2023-11-21T06:02:23;30.83;;;12.43;;
26377;SDS011;14078;50.974;6.786;2023-11-21T06:04:50;27.30;;;13.02;;
26377;SDS011;14078;50.974;6.786;2023-11-21T06:07:18;29.67;;;12.27;;
26377;SDS011;14078;50.974;6.786;2023-11-21T06:09:45;30.55;;;13.27;;
26377;SDS011;14078;50.974;6.786;2023-11-21T06:12:13;30.08;;;12.23;;
26377;SDS011;14078;50.974;6.786;2023-11-21T06:14:41;33.72;;;14.07;;
26377;SDS011;14078;50.974;6.786;2023-11-21T06:17:07;33.45;;;12.90;;
26377;SDS011;14078;50.974;6.786;2023-11-21T06:19:35;30.75;;;12.75;;
26377;SDS011;14078;50.974;6.786;2023-11-21T06:22:01;33.10;;;13.70;;
26377;SDS011;14078;50.974;6.786;2023-11-21T06:24:29;33.15;;;13.10;;
26377;SDS011;14078;50.974;6.786;2023-11-21T06:26:56;33.47;;;12.60;;
26377;SDS011;14078;50.974;6.786;2023-11-21T06:29:23;26.38;;;13.63;;
26377;SDS011;14078;50.974;6.786;2023-11-21T06:31:51;31.60;;;12.38;;
26377;SDS011;14078;50.974;6.786;2023-11-21T06:34:20;30.45;;;11.98;;
26377;SDS011;14078;50.974;6.786;2023-11-21T06:36:46;34.10;;;14.63;;
26377;SDS011;14078;50.974;6.786;2023-11-21T06:39:13;30.58;;;13.95;;
26377;SDS011;14078;50.974;6.786;2023-11-21T06:41:43;37.67;;;13.80;;
26377;SDS011;14078;50.974;6.786;2023-11-21T06:44:09;31.33;;;12.20;;
26377;SDS011;14078;50.974;6.786;2023-11-21T06:46:36;35.22;;;12.85;;
26377;SDS011;14078;50.974;6.786;2023-11-21T06:49:07;36.30;;;13.30;;
26377;SDS011;14078;50.974;6.786;2023-11-21T06:51:33;30.60;;;13.52;;
26377;SDS011;14078;50.974;6.786;2023-11-21T06:54:00;26.70;;;12.10;;
26377;SDS011;14078;50.974;6.786;2023-11-21T06:56:27;27.95;;;14.07;;
26377;SDS011;14078;50.974;6.786;2023-11-21T06:58:55;33.65;;;12.38;;
26377;SDS011;14078;50.974;6.786;2023-11-21T07:01:21;28.58;;;13.52;;
26377;SDS011;14078;50.974;6.786;2023-11-21T07:03:49;35.03;;;13.07;;
26377;SDS011;14078;50.974;6.786;2023-11-21T07:06:16;34.95;;;14.85;;
26377;SDS011;14078;50.974;6.786;2023-11-21T07:08:43;40.90;;;15.43;;
26377;SDS011;14078;50.974;6.786;2023-11-21T07:11:09;37.60;;;14.75;;
26377;SDS011;14078;50.974;6.786;2023-11-21T07:13:37;29.63;;;12.60;;
26377;SDS011;14078;50.974;6.786;2023-11-21T07:16:05;29.38;;;13.65;;
26377;SDS011;14078;50.974;6.786;2023-11-21T07:18:32;32.30;;;14.40;;
26377;SDS011;14078;50.974;6.786;2023-11-21T07:20:59;31.27;;;12.68;;
26377;SDS011;14078;50.974;6.786;2023-11-21T07:23:25;27.15;;;11.88;;
26377;SDS011;14078;50.974;6.786;2023-11-21T07:25:52;25.25;;;11.18;;
26377;SDS011;14078;50.974;6.786;2023-11-21T07:28:19;30.45;;;13.63;;
26377;SDS011;14078;50.974;6.786;2023-11-21T07:30:45;34.40;;;14.00;;
26377;SDS011;14078;50.974;6.786;2023-11-21T07:33:13;28.42;;;12.98;;
26377;SDS011;14078;50.974;6.786;2023-11-21T07:35:40;36.65;;;13.50;;
26377;SDS011;14078;50.974;6.786;2023-11-21T07:38:06;33.47;;;14.52;;
26377;SDS011;14078;50.974;6.786;2023-11-21T07:40:33;33.65;;;14.07;;
26377;SDS011;14078;50.974;6.786;2023-11-21T07:43:00;36.50;;;12.98;;
26377;SDS011;14078;50.974;6.786;2023-11-21T07:48:46;33.15;;;14.52;;
26377;SDS011;14078;50.974;6.786;2023-11-21T07:51:13;39.70;;;14.85;;
26377;SDS011;14078;50.974;6.786;2023-11-21T07:53:39;42.70;;;15.88;;
26377;SDS011;14078;50.974;6.786;2023-11-21T07:56:07;38.60;;;15.68;;
26377;SDS011;14078;50.974;6.786;2023-11-21T07:58:34;37.60;;;15.30;;
26377;SDS011;14078;50.974;6.786;2023-11-21T08:01:02;40.70;;;15.30;;
26377;SDS011;14078;50.974;6.786;2023-11-21T08:09:49;39.42;;;12.30;;
26377;SDS011;14078;50.974;6.786;2023-11-21T08:12:16;37.65;;;14.85;;
26377;SDS011;14078;50.974;6.786;2023-11-21T08:14:43;38.15;;;15.88;;
26377;SDS011;14078;50.974;6.786;2023-11-21T08:17:09;40.40;;;16.38;;
26377;SDS011;14078;50.974;6.786;2023-11-21T08:19:36;40.03;;;14.57;;
26377;SDS011;14078;50.974;6.786;2023-11-21T08:22:03;36.47;;;15.73;;
26377;SDS011;14078;50.974;6.786;2023-11-21T08:24:34;37.15;;;15.60;;
26377;SDS011;14078;50.974;6.786;2023-11-21T08:27:01;42.85;;;17.13;;
26377;SDS011;14078;50.974;6.786;2023-11-21T08:29:29;37.55;;;15.18;;
26377;SDS011;14078;50.974;6.786;2023-11-21T08:31:56;37.33;;;16.13;;
26377;SDS011;14078;50.974;6.786;2023-11-21T08:34:23;42.67;;;16.15;;
26377;SDS011;14078;50.974;6.786;2023-11-21T08:36:50;47.63;;;17.25;;
26377;SDS011;14078;50.974;6.786;2023-11-21T08:39:17;40.42;;;15.32;;
26377;SDS011;14078;50.974;6.786;2023-11-21T08:41:46;39.60;;;14.82;;
26377;SDS011;14078;50.974;6.786;2023-11-21T08:44:13;37.60;;;13.95;;
26377;SDS011;14078;50.974;6.786;2023-11-21T08:46:41;37.03;;;14.07;;
26377;SDS011;14078;50.974;6.786;2023-11-21T08:49:09;40.28;;;14.55;;
26377;SDS011;14078;50.974;6.786;2023-11-21T08:51:36;35.60;;;13.68;;
26377;SDS011;14078;50.974;6.786;2023-11-21T08:54:03;37.42;;;13.73;;
26377;SDS011;14078;50.974;6.786;2023-11-21T08:56:33;44.90;;;13.43;;
26377;SDS011;14078;50.974;6.786;2023-11-21T08:59:01;37.05;;;12.88;;
26377;SDS011;14078;50.974;6.786;2023-11-21T09:01:28;31.73;;;11.95;;
26377;SDS011;14078;50.974;6.786;2023-11-21T09:03:56;35.60;;;12.77;;
26377;SDS011;14078;50.974;6.786;2023-11-21T09:06:23;38.95;;;14.13;;
26377;SDS011;14078;50.974;6.786;2023-11-21T09:08:50;44.55;;;14.70;;
26377;SDS011;14078;50.974;6.786;2023-11-21T09:33:15;45.95;;;14.05;;
26377;SDS011;14078;50.974;6.786;2023-11-21T09:35:41;39.88;;;14.05;;
26377;SDS011;14078;50.974;6.786;2023-11-21T09:38:09;48.65;;;15.18;;
26377;SDS011;14078;50.974;6.786;2023-11-21T09:40:36;43.78;;;15.90;;
26377;SDS011;14078;50.974;6.786;2023-11-21T09:43:05;50.03;;;16.13;;
26377;SDS011;14078;50.974;6.786;2023-11-21T09:45:34;44.70;;;15.88;;
26377;SDS011;14078;50.974;6.786;2023-11-21T09:48:01;35.20;;;12.52;;
26377;SDS011;14078;50.974;6.786;2023-11-21T09:50:30;29.05;;;11.63;;
26377;SDS011;14078;50.974;6.786;2023-11-21T09:53:02;38.42;;;12.77;;
26377;SDS011;14078;50.974;6.786;2023-11-21T09:55:38;37.15;;;12.52;;
26377;SDS011;14078;50.974;6.786;2023-11-21T09:58:09;29.20;;;11.70;;
26377;SDS011;14078;50.974;6.786;2023-11-21T10:00:38;32.38;;;11.95;;
26377;SDS011;14078;50.974;6.786;2023-11-21T10:03:06;40.88;;;11.30;;
26377;SDS011;14078;50.974;6.786;2023-11-21T10:05:35;26.77;;;10.05;;
26377;SDS011;14078;50.974;6.786;2023-11-21T10:08:01;31.48;;;11.10;;
26377;SDS011;14078;50.974;6.786;2023-11-21T10:10:31;32.97;;;11.30;;
26377;SDS011;14078;50.974;6.786;2023-11-21T10:13:00;36.88;;;11.25;;
26377;SDS011;14078;50.974;6.786;2023-11-21T10:15:31;34.05;;;12.43;;
26377;SDS011;14078;50.974;6.786;2023-11-21T10:18:00;33.78;;;11.95;;
26377;SDS011;14078;50.974;6.786;2023-11-21T10:20:29;31.10;;;10.88;;
26377;SDS011;14078;50.974;6.786;2023-11-21T10:22:57;38.25;;;10.93;;
26377;SDS011;14078;50.974;6.786;2023-11-21T10:25:24;32.70;;;11.60;;
26377;SDS011;14078;50.974;6.786;2023-11-21T10:27:56;37.28;;;10.60;;
26377;SDS011;14078;50.974;6.786;2023-11-21T10:30:27;34.83;;;11.93;;
26377;SDS011;14078;50.974;6.786;2023-11-21T10:32:58;36.70;;;12.10;;
26377;SDS011;14078;50.974;6.786;2023-11-21T10:35:25;34.30;;;11.73;;
26377;SDS011;14078;50.974;6.786;2023-11-21T10:38:05;33.03;;;11.00;;
26377;SDS011;14078;50.974;6.786;2023-11-21T10:40:35;36.92;;;11.57;;
26377;SDS011;14078;50.974;6.786;2023-11-21T10:43:05;33.47;;;11.15;;
26377;SDS011;14078;50.974;6.786;2023-11-21T10:45:34;38.90;;;14.05;;
26377;SDS011;14078;50.974;6.786;2023-11-21T10:48:04;48.30;;;12.27;;
26377;SDS011;14078;50.974;6.786;2023-11-21T10:50:32;32.05;;;11.82;;
26377;SDS011;14078;50.974;6.786;2023-11-21T10:53:00;32.00;;;11.48;;
26377;SDS011;14078;50.974;6.786;2023-11-21T10:55:30;31.23;;;11.80;;
26377;SDS011;14078;50.974;6.786;2023-11-21T10:57:58;34.72;;;11.80;;
26377;SDS011;14078;50.974;6.786;2023-11-21T11:02:53;29.75;;;11.05;;
26377;SDS011;14078;50.974;6.786;2023-11-21T11:05:21;40.45;;;12.93;;
26377;SDS011;14078;50.974;6.786;2023-11-21T11:07:51;31.65;;;11.77;;
26377;SDS011;14078;50.974;6.786;2023-11-21T11:10:24;32.65;;;11.55;;
26377;SDS011;14078;50.974;6.786;2023-11-21T11:12:53;33.85;;;11.70;;
26377;SDS011;14078;50.974;6.786;2023-11-21T11:15:20;43.13;;;12.50;;
26377;SDS011;14078;50.974;6.786;2023-11-21T11:17:48;31.10;;;10.88;;
26377;SDS011;14078;50.974;6.786;2023-11-21T11:20:15;38.05;;;10.50;;
26377;SDS011;14078;50.974;6.786;2023-11-21T11:22:44;26.70;;;10.67;;
26377;SDS011;14078;50.974;6.786;2023-11-21T11:25:25;31.52;;;10.90;;
26377;SDS011;14078;50.974;6.786;2023-11-21T11:28:03;27.85;;;11.63;;
26377;SDS011;14078;50.974;6.786;2023-11-21T11:30:37;29.52;;;10.95;;
26377;SDS011;14078;50.974;6.786;2023-11-21T11:33:13;23.67;;;9.95;;
26377;SDS011;14078;50.974;6.786;2023-11-21T11:35:51;32.63;;;10.85;;
26377;SDS011;14078;50.974;6.786;2023-11-21T11:38:23;32.97;;;12.02;;
26377;SDS011;14078;50.974;6.786;2023-11-21T11:40:53;41.03;;;12.18;;
26377;SDS011;14078;50.974;6.786;2023-11-21T11:43:28;36.28;;;12.23;;
26377;SDS011;14078;50.974;6.786;2023-11-21T11:45:55;27.08;;;11.95;;
26377;SDS011;14078;50.974;6.786;2023-11-21T11:48:24;28.48;;;10.82;;
26377;SDS011;14078;50.974;6.786;2023-11-21T11:51:00;33.83;;;11.38;;
26377;SDS011;14078;50.974;6.786;2023-11-21T11:53:33;23.50;;;9.05;;
26377;SDS011;14078;50.974;6.786;2023-11-21T11:59:01;25.00;;;9.18;;
26377;SDS011;14078;50.974;6.786;2023-11-21T12:01:33;23.90;;;8.65;;
26377;SDS011;14078;50.974;6.786;2023-11-21T12:07:00;24.50;;;8.13;;
26377;SDS011;14078;50.974;6.786;2023-11-21T12:09:28;21.88;;;8.10;;
26377;SDS011;14078;50.974;6.786;2023-11-21T12:11:57;23.42;;;9.18;;
26377;SDS011;14078;50.974;6.786;2023-11-21T12:14:26;26.52;;;8.52;;
26377;SDS011;14078;50.974;6.786;2023-11-21T12:16:54;19.60;;;8.52;;
26377;SDS011;14078;50.974;6.786;2023-11-21T12:19:20;19.20;;;8.15;;
26377;SDS011;14078;50.974;6.786;2023-11-21T12:21:48;24.05;;;9.25;;
26377;SDS011;14078;50.974;6.786;2023-11-21T12:24:15;28.42;;;9.52;;
26377;SDS011;14078;50.974;6.786;2023-11-21T12:26:42;27.77;;;9.63;;
26377;SDS011;14078;50.974;6.786;2023-11-21T12:29:10;22.23;;;8.68;;
26377;SDS011;14078;50.974;6.786;2023-11-21T12:31:38;28.52;;;9.43;;
26377;SDS011;14078;50.974;6.786;2023-11-21T12:34:05;20.90;;;8.60;;
26377;SDS011;14078;50.974;6.786;2023-11-21T12:36:34;33.25;;;10.95;;
26377;SDS011;14078;50.974;6.786;2023-11-21T12:39:01;25.83;;;8.90;;
26377;SDS011;14078;50.974;6.786;2023-11-21T12:41:28;30.35;;;10.50;;
26377;SDS011;14078;50.974;6.786;2023-11-21T12:43:56;35.28;;;11.75;;
26377;SDS011;14078;50.974;6.786;2023-11-21T12:46:23;27.88;;;9.48;;
26377;SDS011;14078;50.974;6.786;2023-11-21T12:48:54;27.27;;;10.35;;
26377;SDS011;14078;50.974;6.786;2023-11-21T12:51:21;28.23;;;10.45;;
26377;SDS011;14078;50.974;6.786;2023-11-21T12:53:48;30.95;;;10.48;;
26377;SDS011;14078;50.974;6.786;2023-11-21T12:56:16;25.52;;;9.63;;
26377;SDS011;14078;50.974;6.786;2023-11-21T12:58:44;27.55;;;9.32;;
26377;SDS011;14078;50.974;6.786;2023-11-21T13:03:43;27.20;;;10.02;;
26377;SDS011;14078;50.974;6.786;2023-11-21T13:06:14;26.70;;;10.65;;
26377;SDS011;14078;50.974;6.786;2023-11-21T13:08:42;21.45;;;9.25;;
26377;SDS011;14078;50.974;6.786;2023-11-21T13:11:10;25.75;;;9.45;;
26377;SDS011;14078;50.974;6.786;2023-11-21T13:13:39;23.67;;;8.90;;
26377;SDS011;14078;50.974;6.786;2023-11-21T13:16:07;16.27;;;7.40;;
26377;SDS011;14078;50.974;6.786;2023-11-21T13:18:34;21.20;;;8.90;;
26377;SDS011;14078;50.974;6.786;2023-11-21T13:21:03;20.70;;;7.55;;
26377;SDS011;14078;50.974;6.786;2023-11-21T13:23:36;20.27;;;8.45;;
26377;SDS011;14078;50.974;6.786;2023-11-21T13:26:03;24.27;;;8.27;;
26377;SDS011;14078;50.974;6.786;2023-11-21T13:28:30;27.95;;;9.10;;
26377;SDS011;14078;50.974;6.786;2023-11-21T13:30:58;21.75;;;8.52;;
26377;SDS011;14078;50.974;6.786;2023-11-21T13:33:28;19.80;;;8.40;;
26377;SDS011;14078;50.974;6.786;2023-11-21T13:35:55;22.70;;;9.35;;
26377;SDS011;14078;50.974;6.786;2023-11-21T13:38:22;18.75;;;8.65;;
26377;SDS011;14078;50.974;6.786;2023-11-21T13:40:51;18.33;;;8.10;;
26377;SDS011;14078;50.974;6.786;2023-11-21T13:43:19;18.40;;;8.95;;
26377;SDS011;14078;50.974;6.786;2023-11-21T13:45:49;20.63;;;8.85;;
26377;SDS011;14078;50.974;6.786;2023-11-21T13:48:20;21.95;;;9.15;;
26377;SDS011;14078;50.974;6.786;2023-11-21T13:50:53;35.88;;;10.70;;
26377;SDS011;14078;50.974;6.786;2023-11-21T13:53:23;24.55;;;9.80;;
26377;SDS011;14078;50.974;6.786;2023-11-21T13:55:52;25.45;;;9.82;;
26377;SDS011;14078;50.974;6.786;2023-11-21T13:58:21;24.90;;;9.57;;
26377;SDS011;14078;50.974;6.786;2023-11-21T14:00:51;25.80;;;11.85;;
26377;SDS011;14078;50.974;6.786;2023-11-21T14:03:21;23.58;;;11.52;;
26377;SDS011;14078;50.974;6.786;2023-11-21T14:05:57;26.63;;;12.88;;
26377;SDS011;14078;50.974;6.786;2023-11-21T14:08:25;29.38;;;11.15;;
26377;SDS011;14078;50.974;6.786;2023-11-21T14:10:54;27.63;;;10.15;;
26377;SDS011;14078;50.974;6.786;2023-11-21T14:13:22;21.17;;;9.30;;
26377;SDS011;14078;50.974;6.786;2023-11-21T14:15:49;23.88;;;9.07;;
26377;SDS011;14078;50.974;6.786;2023-11-21T14:18:19;18.90;;;9.27;;
26377;SDS011;14078;50.974;6.786;2023-11-21T14:20:52;23.83;;;9.00;;
26377;SDS011;14078;50.974;6.786;2023-11-21T14:23:19;22.77;;;9.50;;
26377;SDS011;14078;50.974;6.786;2023-11-21T14:25:46;19.42;;;8.82;;
26377;SDS011;14078;50.974;6.786;2023-11-21T14:28:14;20.30;;;8.88;;
26377;SDS011;14078;50.974;6.786;2023-11-21T14:30:41;23.40;;;8.50;;
26377;SDS011;14078;50.974;6.786;2023-11-21T14:33:08;24.50;;;8.55;;
26377;SDS011;14078;50.974;6.786;2023-11-21T14:35:36;24.88;;;8.02;;
26377;SDS011;14078;50.974;6.786;2023-11-21T14:38:03;21.50;;;9.50;;
26377;SDS011;14078;50.974;6.786;2023-11-21T14:40:31;30.38;;;10.13;;
26377;SDS011;14078;50.974;6.786;2023-11-21T14:43:00;24.50;;;10.20;;
26377;SDS011;14078;50.974;6.786;2023-11-21T14:45:31;23.30;;;10.77;;
26377;SDS011;14078;50.974;6.786;2023-11-21T14:47:59;26.80;;;10.73;;
26377;SDS011;14078;50.974;6.786;2023-11-21T14:50:32;30.25;;;10.02;;
26377;SDS011;14078;50.974;6.786;2023-11-21T14:53:15;27.50;;;10.55;;
26377;SDS011;14078;50.974;6.786;2023-11-21T14:55:48;25.63;;;10.95;;
26377;SDS011;14078;50.974;6.786;2023-11-21T14:58:22;23.88;;;10.80;;
26377;SDS011;14078;50.974;6.786;2023-11-21T15:00:53;27.05;;;10.30;;
26377;SDS011;14078;50.974;6.786;2023-11-21T15:03:23;32.65;;;10.07;;
26377;SDS011;14078;50.974;6.786;2023-11-21T15:06:08;33.20;;;11.73;;
26377;SDS011;14078;50.974;6.786;2023-11-21T15:08:49;28.70;;;11.02;;
26377;SDS011;14078;50.974;6.786;2023-11-21T15:11:22;29.20;;;11.13;;
26377;SDS011;14078;50.974;6.786;2023-11-21T15:13:55;27.25;;;10.68;;
26377;SDS011;14078;50.974;6.786;2023-11-21T15:16:23;33.30;;;12.68;;
26377;SDS011;14078;50.974;6.786;2023-11-21T15:18:50;32.53;;;11.38;;